Time;durP1;ratioP1;P1;durP2;ratioP2;P2;SDS_P1;SDS_P2;PMS_P1;PMS_P2;Temp;Humidity;BMP_temperature;BMP_pressure;BME280_temperature;BME280_humidity;BME280_pressure;Samples;Min_cycle;Max_cycle;Signal;HPM_P1;HPM_P2
2024/01/11 00:00:16;;;;;;;;;22.50;19.50;;;;;-1.78;62.27;103345.41;5018913;28;11591;-67
2024/01/11 00:02:42;;;;;;;;;23.75;21.50;;;;;-1.70;62.67;103342.50;5009431;28;11608;-67
2024/01/11 00:05:09;;;;;;;;;20.50;19.00;;;;;-1.65;62.41;103343.22;5023905;28;12248;-67
2024/01/11 00:07:36;;;;;;;;;27.00;21.00;;;;;-1.67;61.90;103347.66;5016067;28;11643;-67
2024/01/11 00:10:03;;;;;;;;;29.00;25.00;;;;;-1.76;62.31;103338.28;5009875;28;11648;-67
2024/01/11 00:12:31;;;;;;;;;22.50;20.00;;;;;-1.73;62.55;103339.97;5010951;28;11697;-67
2024/01/11 00:14:58;;;;;;;;;23.50;16.50;;;;;-1.71;62.48;103342.53;5011811;28;11571;-67
2024/01/11 00:17:25;;;;;;;;;34.50;27.50;;;;;-1.67;62.13;103333.59;5011981;28;12305;-67
2024/01/11 00:19:52;;;;;;;;;22.50;21.75;;;;;-1.66;63.04;103341.50;5011770;28;11624;-67
2024/01/11 00:22:19;;;;;;;;;22.25;19.50;;;;;-1.60;63.23;103335.97;5010736;28;11662;-67
2024/01/11 00:24:45;;;;;;;;;23.75;20.00;;;;;-1.58;62.27;103347.38;5016104;28;11645;-67
2024/01/11 00:27:12;;;;;;;;;22.00;19.00;;;;;-1.54;62.79;103334.88;5031101;28;11638;-67
2024/01/11 00:29:38;;;;;;;;;26.25;24.00;;;;;-1.52;62.74;103336.56;5030803;28;11566;-67
2024/01/11 00:32:05;;;;;;;;;24.67;21.67;;;;;-1.59;62.54;103344.75;5030051;28;11640;-67
2024/01/11 00:34:32;;;;;;;;;25.00;24.00;;;;;-1.58;63.03;103331.53;5027344;28;11606;-67
2024/01/11 00:36:59;;;;;;;;;31.00;25.50;;;;;-1.59;62.58;103337.69;5010868;28;11566;-67
2024/01/11 00:39:25;;;;;;;;;25.67;25.00;;;;;-1.60;62.63;103329.84;5009284;28;11616;-67
2024/01/11 00:41:52;;;;;;;;;25.50;24.00;;;;;-1.57;63.17;103332.38;5010582;28;11584;-67
2024/01/11 00:44:18;;;;;;;;;27.25;24.00;;;;;-1.54;62.61;103337.53;5011340;28;11586;-67
2024/01/11 00:46:45;;;;;;;;;28.00;21.33;;;;;-1.57;62.98;103340.31;5030483;28;11548;-67
2024/01/11 00:49:12;;;;;;;;;27.25;22.50;;;;;-1.64;62.41;103344.06;5030348;28;12950;-67
2024/01/11 00:51:39;;;;;;;;;24.33;19.67;;;;;-1.77;62.25;103348.91;5030140;28;12425;-67
2024/01/11 00:54:06;;;;;;;;;35.33;27.67;;;;;-1.75;63.20;103344.44;5028966;28;11592;-67
2024/01/11 00:56:33;;;;;;;;;29.00;22.00;;;;;-1.73;63.04;103344.41;5009690;28;11581;-66
2024/01/11 00:58:59;;;;;;;;;24.75;22.50;;;;;-1.77;63.72;103346.28;5010589;28;11587;-66
2024/01/11 01:01:26;;;;;;;;;29.33;24.67;;;;;-1.76;63.53;103345.34;5008949;28;11622;-67
2024/01/11 01:03:53;;;;;;;;;30.33;30.00;;;;;-1.81;63.47;103344.66;5010202;28;11711;-67
2024/01/11 01:06:19;;;;;;;;;28.00;24.33;;;;;-1.79;63.70;103345.44;5027091;28;12281;-67
2024/01/11 01:08:46;;;;;;;;;27.50;24.25;;;;;-1.81;63.41;103345.50;5030245;28;11675;-66
2024/01/11 01:11:12;;;;;;;;;28.67;25.00;;;;;-1.74;64.32;103348.81;5018440;28;11762;-66
2024/01/11 01:13:39;;;;;;;;;34.00;32.33;;;;;-1.66;63.96;103352.06;5008907;28;11589;-66
2024/01/11 01:16:06;;;;;;;;;31.33;31.33;;;;;-1.60;63.98;103350.97;5008999;28;11599;-66
2024/01/11 01:18:32;;;;;;;;;25.33;23.67;;;;;-1.58;63.79;103354.41;5010483;28;8953;-66
2024/01/11 01:20:59;;;;;;;;;25.00;24.00;;;;;-1.54;63.78;103348.97;5019096;28;11603;-67
2024/01/11 01:23:25;;;;;;;;;27.67;24.00;;;;;-1.48;63.56;103347.03;5029645;28;11679;-66
2024/01/11 01:25:52;;;;;;;;;32.33;30.00;;;;;-1.50;64.27;103345.31;5030107;28;11576;-66
2024/01/11 01:28:19;;;;;;;;;36.67;31.67;;;;;-1.44;63.68;103359.22;5030098;28;11608;-66
2024/01/11 01:30:45;;;;;;;;;32.33;24.67;;;;;-1.43;64.45;103351.22;5021679;28;11695;-66
2024/01/11 01:33:12;;;;;;;;;31.67;28.67;;;;;-1.42;64.12;103352.09;5008648;28;11680;-66
2024/01/11 01:35:38;;;;;;;;;32.00;26.75;;;;;-1.41;64.08;103353.84;5023529;28;11589;-66
2024/01/11 01:38:05;;;;;;;;;28.67;26.33;;;;;-1.41;64.00;103343.25;5028709;28;11579;-66
2024/01/11 01:40:32;;;;;;;;;30.33;28.67;;;;;-1.40;64.51;103351.13;5028052;28;11611;-66
2024/01/11 01:42:59;;;;;;;;;38.00;31.00;;;;;-1.44;64.15;103346.88;5031652;28;11553;-66
2024/01/11 01:45:27;;;;;;;;;40.00;30.00;;;;;-1.43;64.11;103339.78;5033795;28;11590;-66
2024/01/11 01:47:54;;;;;;;;;27.67;24.00;;;;;-1.39;64.68;103344.91;5032479;28;11739;-67
2024/01/11 01:50:21;;;;;;;;;35.00;27.67;;;;;-1.36;64.60;103350.09;5031683;28;11674;-66
2024/01/11 01:52:48;;;;;;;;;34.67;28.33;;;;;-1.40;64.53;103356.41;5033289;28;11603;-66
2024/01/11 01:55:16;;;;;;;;;31.33;30.33;;;;;-1.41;64.43;103367.03;5033502;28;12345;-66
2024/01/11 01:57:44;;;;;;;;;36.67;36.33;;;;;-1.52;64.63;103367.41;5033354;28;11575;-66
2024/01/11 02:00:12;;;;;;;;;28.33;27.33;;;;;-1.54;65.13;103382.44;5031407;28;11595;-67
2024/01/11 02:02:41;;;;;;;;;33.67;30.67;;;;;-1.60;64.98;103380.88;5013128;28;11703;-66
2024/01/11 02:05:10;;;;;;;;;37.67;34.00;;;;;-1.65;64.92;103374.91;5014255;28;11548;-67
2024/01/11 02:07:37;;;;;;;;;35.00;28.67;;;;;-1.62;65.15;103368.63;5013696;28;11590;-67
2024/01/11 02:10:04;;;;;;;;;41.67;35.33;;;;;-1.70;65.96;103366.28;5014101;28;12273;-67
2024/01/11 02:12:32;;;;;;;;;33.33;32.00;;;;;-1.71;66.21;103369.81;5033047;28;11682;-67
2024/01/11 02:14:58;;;;;;;;;32.67;27.67;;;;;-1.71;66.06;103376.88;5033315;28;8836;-65
2024/01/11 02:17:25;;;;;;;;;34.67;29.33;;;;;-1.69;66.75;103373.28;5033132;28;11651;-67
2024/01/11 02:19:52;;;;;;;;;50.00;36.33;;;;;-1.61;67.07;103368.59;5033003;28;11643;-67
2024/01/11 02:22:24;;;;;;;;;36.67;27.33;;;;;-1.58;67.15;103368.50;5014216;28;11673;-67
2024/01/11 02:24:52;;;;;;;;;30.33;24.67;;;;;-1.55;67.02;103363.09;5013199;28;12388;-67
2024/01/11 02:27:19;;;;;;;;;40.67;34.67;;;;;-1.53;66.86;103363.03;5013491;28;11588;-67
2024/01/11 02:29:46;;;;;;;;;33.33;30.00;;;;;-1.52;66.88;103362.97;5011745;28;12320;-67
2024/01/11 02:32:12;;;;;;;;;40.33;32.33;;;;;-1.48;66.98;103358.47;5030382;28;11554;-68
2024/01/11 02:34:39;;;;;;;;;37.67;33.00;;;;;-1.48;67.43;103358.47;5032870;28;8825;-67
2024/01/11 02:37:07;;;;;;;;;35.33;27.67;;;;;-1.43;67.08;103355.66;5033026;28;11569;-67
2024/01/11 02:39:34;;;;;;;;;43.67;35.33;;;;;-1.47;66.93;103361.97;5032869;28;11690;-66
2024/01/11 02:42:00;;;;;;;;;36.67;33.67;;;;;-1.52;67.28;103357.69;5017274;28;8827;-66
2024/01/11 02:44:27;;;;;;;;;40.67;38.33;;;;;-1.59;67.95;103361.47;5011249;28;11585;-67
2024/01/11 02:46:54;;;;;;;;;52.67;44.00;;;;;-1.63;68.72;103357.22;5012786;28;11684;-67
2024/01/11 02:49:20;;;;;;;;;40.33;34.67;;;;;-1.63;68.75;103356.34;5011465;28;11573;-64
2024/01/11 02:51:47;;;;;;;;;42.67;32.33;;;;;-1.60;68.86;103353.59;5026096;28;8855;-67
2024/01/11 02:54:14;;;;;;;;;36.33;31.00;;;;;-1.56;68.75;103357.88;5031976;28;8918;-68
2024/01/11 02:56:40;;;;;;;;;43.67;34.67;;;;;-1.55;68.29;103368.38;5032297;28;11610;-67
2024/01/11 02:59:07;;;;;;;;;37.67;37.00;;;;;-1.58;68.83;103362.31;5031019;28;11647;-66
2024/01/11 03:01:34;;;;;;;;;46.00;40.00;;;;;-1.61;69.19;103370.38;5020329;28;11619;-66
2024/01/11 03:04:00;;;;;;;;;52.67;38.33;;;;;-1.64;69.38;103367.84;5012352;28;8915;-67
2024/01/11 03:06:27;;;;;;;;;36.00;34.33;;;;;-1.62;68.86;103372.16;5011162;28;8851;-65
2024/01/11 03:08:53;;;;;;;;;38.00;36.00;;;;;-1.57;69.51;103364.94;5012460;28;11671;-66
2024/01/11 03:11:20;;;;;;;;;42.33;37.67;;;;;-1.55;69.33;103371.00;5011848;28;11613;-67
2024/01/11 03:13:47;;;;;;;;;48.00;40.33;;;;;-1.55;69.16;103367.50;5012059;28;11613;-67
2024/01/11 03:16:13;;;;;;;;;40.00;34.33;;;;;-1.50;69.45;103376.13;5012201;28;11726;-67
2024/01/11 03:18:40;;;;;;;;;49.00;37.00;;;;;-1.44;69.42;103370.63;5018332;28;12426;-67
2024/01/11 03:21:07;;;;;;;;;35.33;24.33;;;;;-1.39;69.83;103371.34;5030482;28;11628;-67
2024/01/11 03:23:33;;;;;;;;;50.00;42.67;;;;;-1.38;69.32;103354.56;5031744;28;12293;-67
2024/01/11 03:26:00;;;;;;;;;44.67;40.00;;;;;-1.37;69.24;103366.88;5030621;28;8821;-65
2024/01/11 03:28:27;;;;;;;;;44.00;35.33;;;;;-1.37;69.30;103358.09;5025984;28;8811;-66
2024/01/11 03:30:54;;;;;;;;;36.00;31.67;;;;;-1.38;68.88;103353.69;5011802;28;12367;-67
2024/01/11 03:33:21;;;;;;;;;43.33;31.67;;;;;-1.39;69.26;103359.91;5011562;28;11595;-66
2024/01/11 03:35:48;;;;;;;;;50.00;38.33;;;;;-1.38;69.55;103369.56;5012022;28;8871;-67
2024/01/11 03:38:14;;;;;;;;;46.67;38.33;;;;;-1.35;69.80;103366.81;5015297;28;11647;-66
2024/01/11 03:40:41;;;;;;;;;49.67;43.33;;;;;-1.36;69.16;103352.72;5031412;28;8967;-66
2024/01/11 03:43:08;;;;;;;;;44.67;40.67;;;;;-1.37;69.80;103355.44;5031377;28;11593;-65
2024/01/11 03:45:34;;;;;;;;;46.33;39.67;;;;;-1.37;69.78;103366.00;5013756;28;11623;-66
2024/01/11 03:48:01;;;;;;;;;31.67;28.67;;;;;-1.38;69.30;103362.47;5026123;28;11620;-64
2024/01/11 03:50:27;;;;;;;;;47.33;39.67;;;;;-1.39;69.86;103368.69;5011492;28;11574;-66
2024/01/11 03:52:54;;;;;;;;;50.67;40.33;;;;;-1.39;69.82;103371.34;5011207;28;12359;-67
2024/01/11 03:55:21;;;;;;;;;47.33;39.33;;;;;-1.40;70.59;103371.41;5010055;28;8859;-66
2024/01/11 03:57:47;;;;;;;;;52.33;40.67;;;;;-1.40;69.94;103366.13;5011509;28;8826;-67
2024/01/11 04:00:14;;;;;;;;;50.33;42.33;;;;;-1.44;71.07;103360.06;5011410;28;8827;-66
2024/01/11 04:02:41;;;;;;;;;43.67;37.67;;;;;-1.45;70.76;103366.28;5009844;28;8827;-66
2024/01/11 04:05:08;;;;;;;;;42.33;37.00;;;;;-1.45;71.04;103383.91;5010834;28;12641;-67
2024/01/11 04:07:34;;;;;;;;;42.00;40.67;;;;;-1.51;71.72;103387.63;5011164;28;9696;-67
2024/01/11 04:10:01;;;;;;;;;49.67;43.00;;;;;-1.50;71.97;103399.91;5010137;28;8827;-65
2024/01/11 04:12:27;;;;;;;;;38.67;34.00;;;;;-1.50;71.67;103395.50;5011124;28;8827;-67
2024/01/11 04:14:54;;;;;;;;;60.33;47.67;;;;;-1.59;71.89;103398.44;5011193;28;8961;-66
2024/01/11 04:17:21;;;;;;;;;51.00;44.33;;;;;-1.58;72.46;103392.28;5011217;28;8843;-66
2024/01/11 04:19:47;;;;;;;;;46.67;40.67;;;;;-1.59;72.51;103402.88;5011139;28;8850;-67
2024/01/11 04:22:14;;;;;;;;;58.67;49.00;;;;;-1.58;73.06;103404.56;5010820;28;8855;-67
2024/01/11 04:24:42;;;;;;;;;53.00;41.33;;;;;-1.58;72.91;103396.66;5010928;28;8894;-66
2024/01/11 04:27:09;;;;;;;;;46.67;44.00;;;;;-1.57;73.31;103401.91;5023156;28;8836;-67
2024/01/11 04:29:35;;;;;;;;;54.00;47.33;;;;;-1.64;72.93;103404.81;5029628;28;8946;-66
2024/01/11 04:32:02;;;;;;;;;60.67;49.00;;;;;-1.63;73.33;103406.53;5030673;28;8897;-66
2024/01/11 04:34:29;;;;;;;;;56.00;46.67;;;;;-1.64;73.75;103407.44;5030915;28;8923;-65
2024/01/11 04:36:56;;;;;;;;;66.33;52.00;;;;;-1.67;73.78;103424.25;5034151;28;8861;-65
2024/01/11 04:39:23;;;;;;;;;44.00;38.67;;;;;-1.68;74.32;103426.94;5010902;28;8847;-66
2024/01/11 04:41:49;;;;;;;;;51.67;46.00;;;;;-1.66;74.33;103418.06;5010586;28;9550;-66
2024/01/11 04:44:16;;;;;;;;;32.33;15.00;;;;;-1.68;74.26;103414.59;5011188;28;9597;-66
2024/01/11 04:46:43;;;;;;;;;54.33;46.00;;;;;-1.67;74.83;103412.81;5019049;28;8852;-66
2024/01/11 04:49:10;;;;;;;;;55.67;48.00;;;;;-1.62;74.69;103414.41;5030746;28;8816;-66
2024/01/11 04:51:36;;;;;;;;;55.33;44.33;;;;;-1.61;74.71;103412.63;5029060;28;8832;-67
2024/01/11 04:54:03;;;;;;;;;52.00;47.00;;;;;-1.63;74.46;103415.31;5030401;28;8856;-65
2024/01/11 04:56:30;;;;;;;;;52.67;47.33;;;;;-1.66;74.77;103409.25;5029684;28;8839;-66
2024/01/11 04:58:56;;;;;;;;;52.67;47.33;;;;;-1.65;74.81;103403.94;5029249;28;8832;-67
2024/01/11 05:01:23;;;;;;;;;48.33;43.00;;;;;-1.65;75.50;103396.03;5030048;28;8836;-66
2024/01/11 05:03:50;;;;;;;;;69.00;50.33;;;;;-1.69;74.53;103399.69;5030062;28;8859;-66
2024/01/11 05:06:21;;;;;;;;;69.67;52.67;;;;;-1.73;75.10;103410.41;5029427;28;8821;-66
2024/01/11 05:08:52;;;;;;;;;58.33;48.67;;;;;-1.78;75.87;103397.38;5028869;28;8833;-66
2024/01/11 05:11:20;;;;;;;;;52.67;47.33;;;;;-1.79;75.69;103400.88;5030113;28;8828;-66
2024/01/11 05:13:48;;;;;;;;;60.00;48.00;;;;;-1.79;75.85;103409.66;5030191;28;8951;-67
2024/01/11 05:16:18;;;;;;;;;61.00;45.00;;;;;-1.75;75.68;103411.28;5025263;28;8911;-66
2024/01/11 05:18:45;;;;;;;;;64.00;49.00;;;;;-1.69;76.14;103397.03;5025592;28;8820;-66
2024/01/11 05:21:11;;;;;;;;;61.67;44.33;;;;;-1.65;76.58;103390.75;5032410;28;8852;-66
2024/01/11 05:23:40;;;;;;;;;41.67;38.67;;;;;-1.62;75.98;103390.66;5032309;28;8844;-66
2024/01/11 05:26:08;;;;;;;;;44.33;37.00;;;;;-1.62;75.89;103381.84;5033530;28;8886;-66
2024/01/11 05:28:34;;;;;;;;;53.00;43.67;;;;;-1.56;76.41;103379.84;5033953;28;11683;-66
2024/01/11 05:31:01;;;;;;;;;53.33;44.33;;;;;-1.48;75.99;103363.75;5032610;28;8841;-67
2024/01/11 05:33:28;;;;;;;;;50.33;47.33;;;;;-1.47;75.92;103377.81;5033896;28;8856;-66
2024/01/11 05:35:54;;;;;;;;;60.00;46.67;;;;;-1.47;75.49;103388.38;5032050;28;8856;-66
2024/01/11 05:38:21;;;;;;;;;43.67;37.00;;;;;-1.43;75.47;103398.78;5019494;28;8846;-67
2024/01/11 05:40:47;;;;;;;;;54.67;42.33;;;;;-1.45;75.63;103397.97;5024863;28;11627;-67
2024/01/11 05:43:14;;;;;;;;;58.33;45.00;;;;;-1.47;75.32;103383.94;5029727;28;8904;-65
2024/01/11 05:45:40;;;;;;;;;52.33;45.00;;;;;-1.43;75.35;103377.63;5029528;28;8825;-66
2024/01/11 05:48:14;;;;;;;;;40.33;37.33;;;;;-1.39;75.83;103383.69;5028912;28;8873;-66
2024/01/11 05:50:41;;;;;;;;;34.33;31.00;;;;;-1.35;75.70;103404.66;5021720;28;11627;-66
2024/01/11 05:53:08;;;;;;;;;47.33;42.67;;;;;-1.35;75.21;103404.66;5013443;28;11682;-66
2024/01/11 05:55:35;;;;;;;;;46.67;40.67;;;;;-1.37;74.65;103424.13;5014143;28;8839;-65
2024/01/11 05:58:01;;;;;;;;;57.00;48.00;;;;;-1.44;74.73;103417.34;5033731;28;8821;-65
2024/01/11 06:00:28;;;;;;;;;59.33;47.33;;;;;-1.48;75.46;103418.34;5031017;28;9621;-67
2024/01/11 06:02:54;;;;;;;;;57.33;48.00;;;;;-1.52;75.21;103421.09;5025061;28;8922;-65
2024/01/11 06:05:21;;;;;;;;;65.00;47.33;;;;;-1.52;75.29;103420.22;5032129;28;8910;-66
2024/01/11 06:07:48;;;;;;;;;54.00;46.67;;;;;-1.52;75.47;103421.09;5024560;28;8831;-66
2024/01/11 06:10:14;;;;;;;;;50.00;42.33;;;;;-1.55;74.95;103436.19;5025084;28;8856;-66
2024/01/11 06:12:41;;;;;;;;;57.33;48.00;;;;;-1.60;75.04;103452.19;5031840;28;8856;-66
2024/01/11 06:15:09;;;;;;;;;59.33;50.33;;;;;-1.68;75.34;103471.84;5033305;28;8902;-66
2024/01/11 06:17:36;;;;;;;;;55.33;46.67;;;;;-1.70;76.01;103485.09;5031675;28;8840;-67
2024/01/11 06:20:03;;;;;;;;;60.67;46.33;;;;;-1.67;75.87;103481.47;5033066;28;8848;-67
2024/01/11 06:22:30;;;;;;;;;46.67;41.00;;;;;-1.61;76.07;103486.56;5015122;28;8909;-66
2024/01/11 06:24:57;;;;;;;;;53.00;45.33;;;;;-1.56;75.67;103482.00;5013158;28;11720;-66
2024/01/11 06:27:23;;;;;;;;;40.33;37.67;;;;;-1.50;75.69;103481.78;5025408;28;8856;-67
2024/01/11 06:29:50;;;;;;;;;39.67;36.33;;;;;-1.43;75.47;103487.75;5031883;28;8820;-65
2024/01/11 06:32:16;;;;;;;;;48.00;40.33;;;;;-1.40;75.74;103493.78;5032500;28;11698;-67
2024/01/11 06:34:45;;;;;;;;;54.33;48.33;;;;;-1.40;75.25;103492.94;5032846;28;8859;-67
2024/01/11 06:37:12;;;;;;;;;47.00;44.33;;;;;-1.38;75.68;103497.22;5032406;28;8930;-66
2024/01/11 06:39:39;;;;;;;;;66.33;45.00;;;;;-1.36;75.39;103505.13;5032693;28;8840;-67
2024/01/11 06:42:06;;;;;;;;;47.67;42.67;;;;;-1.39;75.17;103508.72;5032262;28;8860;-65
2024/01/11 06:44:32;;;;;;;;;51.67;40.00;;;;;-1.40;75.17;103508.78;5032783;28;11661;-66
2024/01/11 06:47:01;;;;;;;;;51.67;45.33;;;;;-1.42;75.35;103500.03;5023831;28;12308;-67
2024/01/11 06:49:28;;;;;;;;;49.33;43.67;;;;;-1.38;75.16;103496.38;5012899;28;8909;-67
2024/01/11 06:51:55;;;;;;;;;48.67;38.33;;;;;-1.34;75.67;103498.84;5012376;28;8851;-68
2024/01/11 06:54:21;;;;;;;;;54.33;45.00;;;;;-1.32;75.05;103493.53;5021417;28;8836;-67
2024/01/11 06:56:48;;;;;;;;;51.33;41.67;;;;;-1.28;75.20;103495.16;5025379;28;8823;-66
2024/01/11 06:59:15;;;;;;;;;41.00;37.67;;;;;-1.27;75.11;103494.22;5035247;28;11608;-67
2024/01/11 07:01:45;;;;;;;;;54.00;45.33;;;;;-1.26;74.74;103488.91;5011021;28;11600;-65
2024/01/11 07:04:11;;;;;;;;;52.00;42.00;;;;;-1.22;74.84;103492.28;5012223;28;8901;-66
2024/01/11 07:06:38;;;;;;;;;40.00;38.33;;;;;-1.21;74.82;103483.47;4995291;28;11691;-66
2024/01/11 07:09:05;;;;;;;;;51.33;46.67;;;;;-1.22;74.55;103479.06;5012284;28;8831;-65
2024/01/11 07:11:32;;;;;;;;;55.00;44.33;;;;;-1.22;74.77;103476.44;5010954;28;8860;-65
2024/01/11 07:13:59;;;;;;;;;47.00;45.33;;;;;-1.23;74.57;103473.84;5012093;28;9572;-65
2024/01/11 07:16:25;;;;;;;;;47.00;41.00;;;;;-1.25;74.64;103468.63;5012584;28;8823;-65
2024/01/11 07:18:52;;;;;;;;;42.67;37.33;;;;;-1.23;74.64;103464.13;5012216;28;12353;-66
2024/01/11 07:21:29;;;;;;;;;44.33;35.33;;;;;-1.23;74.43;103460.63;5011880;28;11726;-66
2024/01/11 07:24:00;;;;;;;;;50.33;37.67;;;;;-1.26;74.16;103462.50;5014772;28;11590;-67
2024/01/11 07:26:27;;;;;;;;;45.00;39.67;;;;;-1.25;74.25;103471.28;5030402;28;8844;-66
2024/01/11 07:28:56;;;;;;;;;53.33;45.00;;;;;-1.27;74.09;103466.03;5042336;28;8947;-66
2024/01/11 07:31:23;;;;;;;;;61.33;45.67;;;;;-1.27;74.51;103481.88;5030178;28;8872;-66
2024/01/11 07:33:50;;;;;;;;;52.67;45.33;;;;;-1.27;74.67;103471.31;5031581;28;9582;-65
2024/01/11 07:36:17;;;;;;;;;41.33;37.67;;;;;-1.24;74.69;103486.19;5031385;28;8886;-66
2024/01/11 07:38:44;;;;;;;;;41.33;33.00;;;;;-1.24;74.40;103488.84;5031641;28;12361;-66
2024/01/11 07:41:11;;;;;;;;;42.00;37.67;;;;;-1.23;74.17;103492.34;5031183;28;11595;-65
2024/01/11 07:43:38;;;;;;;;;47.67;42.33;;;;;-1.22;74.44;103491.44;5031619;28;12632;-63
2024/01/11 07:46:19;;;;;;;;;47.33;36.67;;;;;-1.21;74.36;103496.69;5029700;28;8833;-67
2024/01/11 07:48:58;;;;;;;;;53.00;45.00;;;;;-1.22;74.41;103494.06;5024229;28;11687;-65
2024/01/11 07:51:27;;;;;;;;;51.67;44.33;;;;;-1.18;74.52;103490.41;5029763;28;11686;-64
2024/01/11 07:53:54;;;;;;;;;53.67;38.33;;;;;-1.18;74.22;103485.13;5031162;28;11734;-64
2024/01/11 07:56:20;;;;;;;;;49.00;34.00;;;;;-1.17;73.93;103482.44;5030709;28;11564;-65
2024/01/11 07:58:47;;;;;;;;;49.00;34.00;;;;;-1.10;74.21;103493.66;5031149;28;11645;-65
2024/01/11 08:01:16;;;;;;;;;33.25;28.50;;;;;-1.07;74.49;103481.19;5030960;28;11598;-66
2024/01/11 08:03:45;;;;;;;;;42.67;39.00;;;;;-1.05;73.94;103482.00;5029103;28;11597;-66
2024/01/11 08:06:11;;;;;;;;;39.00;35.50;;;;;-1.03;74.38;103471.38;5018989;28;11672;-66
2024/01/11 08:08:39;;;;;;;;;41.33;37.67;;;;;-0.98;74.25;103472.06;5026549;28;11684;-65
2024/01/11 08:11:13;;;;;;;;;48.00;38.00;;;;;-0.96;73.90;103480.81;5027546;28;11707;-66
2024/01/11 08:13:39;;;;;;;;;38.25;33.25;;;;;-0.92;74.09;103478.94;5025285;28;11642;-65
2024/01/11 08:16:09;;;;;;;;;43.25;34.25;;;;;-0.86;74.31;103468.13;5031171;28;11564;-64
2024/01/11 08:18:36;;;;;;;;;38.75;36.75;;;;;-0.83;73.96;103466.22;5011102;28;11605;-67
2024/01/11 08:21:06;;;;;;;;;36.25;33.00;;;;;-0.82;74.08;103467.94;5011075;28;11583;-66
2024/01/11 08:23:33;;;;;;;;;47.50;33.75;;;;;-0.83;74.16;103474.16;5011122;28;11641;-66
2024/01/11 08:26:00;;;;;;;;;37.33;34.00;;;;;-0.80;74.00;103475.84;5010947;28;11596;-65
2024/01/11 08:28:26;;;;;;;;;46.25;35.00;;;;;-0.77;74.82;103495.13;5010409;28;11625;-66
2024/01/11 08:30:53;;;;;;;;;43.00;32.00;;;;;-0.73;74.10;103490.56;5011124;28;11598;-67
2024/01/11 08:33:20;;;;;;;;;41.75;33.25;;;;;-0.71;74.26;103503.75;5010695;28;11659;-67
2024/01/11 08:35:46;;;;;;;;;41.25;37.75;;;;;-0.72;73.93;103508.16;5010922;28;12317;-66
2024/01/11 08:38:13;;;;;;;;;41.00;35.33;;;;;-0.79;73.77;103502.22;5027258;28;11556;-67
2024/01/11 08:40:40;;;;;;;;;41.67;37.33;;;;;-0.82;74.46;103512.03;5029207;28;11631;-66
2024/01/11 08:43:06;;;;;;;;;38.67;32.67;;;;;-0.79;74.78;103519.88;5030108;28;12428;-66
2024/01/11 08:45:33;;;;;;;;;41.67;33.00;;;;;-0.77;75.04;103512.75;5029174;28;12452;-67
2024/01/11 08:48:00;;;;;;;;;38.00;33.00;;;;;-0.73;75.37;103527.56;5021692;28;11619;-67
2024/01/11 08:50:27;;;;;;;;;40.67;38.67;;;;;-0.79;75.14;103533.09;5030372;28;11572;-66
2024/01/11 08:52:55;;;;;;;;;37.00;31.67;;;;;-0.80;75.46;103534.88;5017962;28;11624;-66
2024/01/11 08:55:22;;;;;;;;;35.25;31.50;;;;;-0.76;76.01;103538.28;5020011;28;11574;-67
2024/01/11 08:57:49;;;;;;;;;36.75;34.00;;;;;-0.75;75.95;103540.88;5020849;28;11611;-66
2024/01/11 09:00:17;;;;;;;;;51.33;41.33;;;;;-0.72;76.47;103544.34;5030383;28;11576;-66
2024/01/11 09:02:48;;;;;;;;;44.00;35.75;;;;;-0.72;76.29;103552.28;5029497;28;11600;-67
2024/01/11 09:05:15;;;;;;;;;45.00;38.75;;;;;-0.68;76.80;103549.47;5030175;28;11610;-67
2024/01/11 09:07:42;;;;;;;;;45.50;39.75;;;;;-0.56;76.84;103543.72;5028701;28;11587;-67
2024/01/11 09:10:10;;;;;;;;;45.00;38.33;;;;;-0.53;76.44;103546.28;5030521;28;11632;-66
2024/01/11 09:12:38;;;;;;;;;37.25;32.75;;;;;-0.51;76.72;103546.19;5012428;28;11594;-67
2024/01/11 09:15:05;;;;;;;;;45.00;37.00;;;;;-0.46;76.78;103546.03;5030270;28;11712;-67
2024/01/11 09:17:32;;;;;;;;;40.00;35.25;;;;;-0.45;76.22;103547.75;5020186;28;11609;-67
2024/01/11 09:19:59;;;;;;;;;40.25;33.75;;;;;-0.43;76.46;103545.94;5010507;28;11626;-67
2024/01/11 09:22:27;;;;;;;;;46.75;37.25;;;;;-0.42;76.87;103545.88;5009742;28;11603;-67
2024/01/11 09:24:54;;;;;;;;;27.75;27.00;;;;;-0.36;77.02;103547.44;5009128;28;11706;-67
2024/01/11 09:27:21;;;;;;;;;34.25;26.25;;;;;-0.30;76.79;103548.06;5011339;28;11659;-67
2024/01/11 09:29:47;;;;;;;;;31.25;30.25;;;;;-0.29;76.31;103562.16;5010179;28;11667;-67
2024/01/11 09:32:17;;;;;;;;;37.00;30.75;;;;;-0.27;76.94;103560.31;5009892;28;11573;-67
2024/01/11 09:34:45;;;;;;;;;29.25;26.50;;;;;-0.25;76.98;103569.91;5009959;28;11605;-67
2024/01/11 09:37:12;;;;;;;;;26.75;22.50;;;;;0.04;78.91;103567.09;5015194;28;11642;-66
2024/01/11 09:39:38;;;;;;;;;36.00;32.25;;;;;0.07;77.71;103575.78;5026837;28;11592;-67
2024/01/11 09:42:09;;;;;;;;;31.50;30.50;;;;;0.73;88.04;103575.84;5025605;28;11769;-67
2024/01/11 09:44:39;;;;;;;;;38.25;29.25;;;;;0.88;81.02;103582.28;5029571;28;11628;-66
2024/01/11 09:47:09;;;;;;;;;36.25;26.25;;;;;0.78;78.37;103573.84;5020631;28;11731;-66
2024/01/11 09:49:42;;;;;;;;;33.00;33.00;;;;;0.61;77.08;103563.94;5025372;28;11637;-65
2024/01/11 09:52:10;;;;;;;;;36.25;33.25;;;;;0.50;77.31;103558.22;5021115;28;11556;-65
2024/01/11 09:54:37;;;;;;;;;35.75;27.50;;;;;0.43;77.04;103559.38;5028326;28;11591;-66
2024/01/11 09:57:05;;;;;;;;;31.75;24.75;;;;;0.37;77.42;103562.28;5028321;28;11584;-68
2024/01/11 09:59:33;;;;;;;;;39.75;26.00;;;;;0.32;76.98;103561.59;5029525;28;11698;-68
2024/01/11 10:02:01;;;;;;;;;37.75;30.00;;;;;0.28;77.80;103566.13;5011610;28;11571;-69
2024/01/11 10:04:28;;;;;;;;;30.00;28.50;;;;;0.28;78.10;103568.78;5032247;28;11557;-68
2024/01/11 10:06:56;;;;;;;;;34.00;29.25;;;;;0.30;77.99;103569.59;5030820;28;11588;-67
2024/01/11 10:09:23;;;;;;;;;31.50;29.50;;;;;0.30;78.01;103571.41;5012220;28;11709;-67
2024/01/11 10:11:50;;;;;;;;;29.50;23.50;;;;;0.29;77.92;103583.78;5013174;28;11557;-66
2024/01/11 10:14:17;;;;;;;;;34.25;29.50;;;;;0.28;78.37;103575.88;5013068;28;11592;-66
2024/01/11 10:16:45;;;;;;;;;30.75;28.25;;;;;0.29;78.68;103569.69;5012440;28;11661;-67
2024/01/11 10:19:13;;;;;;;;;37.50;29.50;;;;;0.32;78.70;103566.88;5032969;28;11670;-65
2024/01/11 10:21:40;;;;;;;;;33.00;28.25;;;;;0.30;78.87;103572.25;5033035;28;11648;-65
2024/01/11 10:24:07;;;;;;;;;25.25;25.25;;;;;0.32;78.58;103570.41;5031848;28;11663;-67
2024/01/11 10:26:35;;;;;;;;;37.50;27.25;;;;;0.35;78.64;103570.28;5031405;28;11567;-66
2024/01/11 10:29:02;;;;;;;;;32.75;27.25;;;;;0.32;78.41;103574.84;5012456;28;11679;-67
2024/01/11 10:31:29;;;;;;;;;33.50;25.50;;;;;0.32;78.78;103581.00;5012828;28;11657;-67
2024/01/11 10:33:57;;;;;;;;;28.50;26.50;;;;;0.35;78.55;103585.31;5012983;28;11676;-66
2024/01/11 10:36:24;;;;;;;;;34.25;25.75;;;;;0.34;79.01;103584.47;5012866;28;11737;-65
2024/01/11 10:38:53;;;;;;;;;32.75;30.25;;;;;0.35;78.94;103578.22;5031904;28;11581;-66
2024/01/11 10:41:20;;;;;;;;;31.00;30.00;;;;;0.34;79.00;103587.09;5031146;28;11702;-67
2024/01/11 10:43:48;;;;;;;;;31.25;27.00;;;;;0.32;79.52;103588.94;5031327;28;11600;-66
2024/01/11 10:46:22;;;;;;;;;38.00;29.50;;;;;0.35;79.79;103594.13;5031175;28;11592;-67
2024/01/11 10:48:55;;;;;;;;;38.25;32.00;;;;;0.35;79.77;103595.91;5030631;28;11584;-66
2024/01/11 10:51:23;;;;;;;;;33.00;28.00;;;;;0.33;79.94;103597.78;5032216;28;11710;-66
2024/01/11 10:53:51;;;;;;;;;35.50;31.25;;;;;0.37;79.88;103602.03;5032130;28;11722;-67
2024/01/11 10:56:19;;;;;;;;;31.00;28.50;;;;;0.35;80.08;103604.72;5032288;28;11698;-67
2024/01/11 10:58:47;;;;;;;;;36.00;33.00;;;;;0.36;80.50;103606.44;5014577;28;11654;-67
2024/01/11 11:01:16;;;;;;;;;40.25;27.00;;;;;0.36;80.44;103613.53;5027245;28;11639;-67
2024/01/11 11:03:44;;;;;;;;;37.75;29.50;;;;;0.37;80.66;103610.84;5030960;28;11577;-65
2024/01/11 11:06:11;;;;;;;;;31.00;27.25;;;;;0.41;80.67;103607.16;5031918;28;11597;-66
2024/01/11 11:08:40;;;;;;;;;25.50;19.50;;;;;0.72;87.54;103609.41;5031117;28;11589;-66
2024/01/11 11:11:07;;;;;;;;;26.75;22.50;;;;;0.91;83.32;103606.88;5031831;28;11588;-66